Terminal Aerodrome Forecast
Issued by NWS

Home | Current Version | Previous Version | Text Only | Print | Product List | Glossary On
Versions: 1 2 3 4 5 6 7 8 9 10 11 12 13
000
FTUS43 KGRB 301136
TAFMTW
TAF
KMTW 301136Z 3012/3112 27006KT P6SM SKC
     FM301500 28010KT P6SM SKC
     FM301900 28012G21KT P6SM SCT050
     FM310000 26006KT P6SM SKC=

USA.gov is the U.S. government's official web portal to all federal, state and local government web resources and services.